createdAt,value
2022-10-17T00:02:24.000Z,6.08
2022-10-17T00:07:24.000Z,5.96
2022-10-17T00:12:25.000Z,5.81
2022-10-17T00:17:24.000Z,5.97
2022-10-17T00:22:24.000Z,5.68
2022-10-17T00:27:25.000Z,5.61
2022-10-17T00:32:25.000Z,5.76
2022-10-17T00:37:24.000Z,5.67
2022-10-17T00:47:24.000Z,5.42
2022-10-17T00:52:25.000Z,5.37
2022-10-17T00:57:24.000Z,5.38
2022-10-17T01:02:24.000Z,5.38
2022-10-17T01:07:24.000Z,5.39
2022-10-17T01:12:24.000Z,5.23
2022-10-17T01:17:24.000Z,5.26
2022-10-17T01:22:24.000Z,5.27
2022-10-17T01:27:24.000Z,5.11
2022-10-17T01:32:25.000Z,5.24
2022-10-17T01:37:25.000Z,5.05
2022-10-17T01:42:25.000Z,5.2
2022-10-17T01:47:25.000Z,5.21
2022-10-17T01:52:24.000Z,5.1
2022-10-17T01:57:24.000Z,5.06
2022-10-17T02:02:25.000Z,5.1
2022-10-17T02:07:24.000Z,5.08
2022-10-17T02:17:24.000Z,5.12
2022-10-17T02:22:25.000Z,5.31
2022-10-17T02:27:25.000Z,5.07
2022-10-17T02:32:25.000Z,5.26
2022-10-17T02:37:24.000Z,5.26
2022-10-17T02:42:25.000Z,5.09
2022-10-17T02:47:24.000Z,5.2
2022-10-17T02:52:24.000Z,5.12
2022-10-17T02:57:25.000Z,5.03
2022-10-17T03:07:24.000Z,5.18
2022-10-17T03:12:24.000Z,5.14
2022-10-17T03:17:24.000Z,5.14
2022-10-17T03:22:25.000Z,5.35
2022-10-17T03:27:24.000Z,5.31
2022-10-17T03:32:25.000Z,5.24
2022-10-17T03:37:24.000Z,5.32
2022-10-17T03:42:24.000Z,5.29
2022-10-17T03:47:25.000Z,5.34
2022-10-17T03:52:24.000Z,5.27
2022-10-17T03:57:24.000Z,5.26
2022-10-17T04:02:24.000Z,5.46
2022-10-17T04:07:24.000Z,5.23
2022-10-17T04:12:24.000Z,5.2
2022-10-17T04:17:24.000Z,5.13
2022-10-17T04:22:25.000Z,5.25
2022-10-17T04:27:24.000Z,5.36
2022-10-17T04:32:24.000Z,5.65
2022-10-17T04:37:24.000Z,5.41
2022-10-17T04:42:24.000Z,5.66
2022-10-17T04:47:25.000Z,5.68
2022-10-17T04:52:24.000Z,5.61
2022-10-17T04:57:25.000Z,5.57
2022-10-17T05:02:25.000Z,5.49
2022-10-17T05:07:24.000Z,5.63
2022-10-17T05:12:25.000Z,5.69
2022-10-17T05:17:24.000Z,5.56
2022-10-17T05:22:24.000Z,5.67
2022-10-17T05:27:24.000Z,5.74
2022-10-17T05:32:25.000Z,5.53
2022-10-17T05:37:24.000Z,6.72
2022-10-17T05:42:24.000Z,6.27
2022-10-17T05:47:24.000Z,5.84
2022-10-17T05:52:24.000Z,5.6
2022-10-17T05:57:24.000Z,6
2022-10-17T06:02:24.000Z,5.68
2022-10-17T06:07:24.000Z,5.67
2022-10-17T06:12:24.000Z,5.65
2022-10-17T06:22:24.000Z,5.45
2022-10-17T06:27:25.000Z,5.73
2022-10-17T06:32:25.000Z,5.87
2022-10-17T06:37:24.000Z,5.81
2022-10-17T06:42:24.000Z,5.69
2022-10-17T06:52:25.000Z,5.63
2022-10-17T06:57:25.000Z,5.76
2022-10-17T07:02:24.000Z,6.22
2022-10-17T07:07:24.000Z,6.06
2022-10-17T07:12:24.000Z,6.16
2022-10-17T07:17:24.000Z,6.19
2022-10-17T07:22:25.000Z,6.03
2022-10-17T07:27:25.000Z,6.01
2022-10-17T07:32:24.000Z,6.41
2022-10-17T07:37:25.000Z,6.63
2022-10-17T07:42:25.000Z,6.33
2022-10-17T07:47:25.000Z,6.37
2022-10-17T07:52:25.000Z,6.28
2022-10-17T07:57:24.000Z,6.47
2022-10-17T08:02:24.000Z,6.1
2022-10-17T08:07:25.000Z,6.3
2022-10-17T08:12:24.000Z,6.58
2022-10-17T08:17:24.000Z,6.01
2022-10-17T08:22:24.000Z,6.34
2022-10-17T08:27:24.000Z,6.59
2022-10-17T08:32:24.000Z,6.56
2022-10-17T08:37:24.000Z,6.29
2022-10-17T08:42:25.000Z,6.84
2022-10-17T08:47:25.000Z,6.59
2022-10-17T08:52:24.000Z,6.87
2022-10-17T08:57:24.000Z,7
2022-10-17T09:02:25.000Z,7.24
2022-10-17T09:07:24.000Z,7.14
2022-10-17T09:12:25.000Z,7.26
2022-10-17T09:22:25.000Z,7.75
2022-10-17T09:27:24.000Z,7.9
2022-10-17T09:32:25.000Z,8.06
2022-10-17T09:37:24.000Z,8.22
2022-10-17T09:42:24.000Z,7.9
2022-10-17T09:47:25.000Z,7.86
2022-10-17T09:52:24.000Z,7.93
2022-10-17T09:57:24.000Z,7.64
2022-10-17T10:02:25.000Z,7.68
2022-10-17T10:07:25.000Z,7.87
2022-10-17T10:12:24.000Z,7.86
2022-10-17T10:17:25.000Z,8.37
2022-10-17T10:22:24.000Z,8.87
2022-10-17T10:27:24.000Z,8.82
2022-10-17T10:32:24.000Z,8.54
2022-10-17T10:37:24.000Z,8.5
2022-10-17T10:42:25.000Z,8.84
2022-10-17T10:47:24.000Z,8.74
2022-10-17T10:52:24.000Z,8.72
2022-10-17T11:02:25.000Z,8.76
2022-10-17T11:07:24.000Z,9.04
2022-10-17T11:12:24.000Z,8.87
2022-10-17T11:17:24.000Z,8.76
2022-10-17T11:22:24.000Z,9.21
2022-10-17T11:27:24.000Z,8.77
2022-10-17T11:32:25.000Z,9.22
2022-10-17T11:37:25.000Z,9.37
2022-10-17T11:42:25.000Z,9.11
2022-10-17T11:47:24.000Z,8.59
2022-10-17T11:52:24.000Z,8.91
2022-10-17T11:57:24.000Z,9.06
2022-10-17T12:02:25.000Z,8.95
2022-10-17T12:07:24.000Z,9.77
2022-10-17T12:12:24.000Z,10.24
2022-10-17T12:22:25.000Z,10.37
2022-10-17T12:27:25.000Z,10.11
2022-10-17T12:32:25.000Z,10.17
2022-10-17T12:37:25.000Z,10.2
2022-10-17T12:42:24.000Z,9.71
2022-10-17T12:47:24.000Z,10.07
2022-10-17T12:52:25.000Z,10.88
2022-10-17T12:57:24.000Z,11.53
2022-10-17T13:02:24.000Z,11.62
2022-10-17T13:07:24.000Z,12.33
2022-10-17T13:12:25.000Z,12.42
2022-10-17T13:17:24.000Z,12.09
2022-10-17T13:22:24.000Z,11.56
2022-10-17T13:27:24.000Z,11.21
2022-10-17T13:32:24.000Z,11.15
2022-10-17T13:37:24.000Z,11.79
2022-10-17T13:42:24.000Z,11.34
2022-10-17T13:47:24.000Z,10.86
2022-10-17T13:57:24.000Z,11.86
2022-10-17T14:02:24.000Z,12.21
2022-10-17T14:07:25.000Z,11.84
2022-10-17T14:12:24.000Z,11.43
2022-10-17T14:17:25.000Z,10.6
2022-10-17T14:22:24.000Z,10.99
2022-10-17T14:27:25.000Z,10.85
2022-10-17T14:32:24.000Z,11.14
2022-10-17T14:37:24.000Z,10.75
2022-10-17T14:42:24.000Z,10.83
2022-10-17T14:47:25.000Z,10.65
2022-10-17T14:52:24.000Z,10.66
2022-10-17T14:57:24.000Z,11.11
2022-10-17T15:02:24.000Z,10.36
2022-10-17T15:07:25.000Z,10.32
2022-10-17T15:12:25.000Z,10.81
2022-10-17T15:17:24.000Z,11.68
2022-10-17T15:22:24.000Z,13.08
2022-10-17T15:27:25.000Z,13.63
2022-10-17T15:32:24.000Z,11.57
2022-10-17T15:37:25.000Z,11.51
2022-10-17T15:42:24.000Z,10.67
2022-10-17T15:47:25.000Z,11.26
2022-10-17T15:52:25.000Z,11.26
2022-10-17T15:57:24.000Z,11.87
2022-10-17T16:02:24.000Z,11.4
2022-10-17T16:07:24.000Z,10.69
2022-10-17T16:12:24.000Z,11.33
2022-10-17T16:17:24.000Z,11.12
2022-10-17T16:22:24.000Z,10.71
2022-10-17T16:27:25.000Z,10.61
2022-10-17T16:32:24.000Z,10.96
2022-10-17T16:37:25.000Z,10.55
2022-10-17T16:42:24.000Z,10.55
2022-10-17T16:47:24.000Z,10.88
2022-10-17T16:52:25.000Z,10.46
2022-10-17T16:57:24.000Z,11.92
2022-10-17T17:02:25.000Z,11.28
2022-10-17T17:07:24.000Z,10.85
2022-10-17T17:12:25.000Z,11.4
2022-10-17T17:17:25.000Z,11.76
2022-10-17T17:22:24.000Z,11.34
2022-10-17T17:32:24.000Z,10.74
2022-10-17T17:37:25.000Z,11.63
2022-10-17T17:42:24.000Z,11.96
2022-10-17T17:47:25.000Z,12.06
2022-10-17T17:52:24.000Z,12.58
2022-10-17T17:57:25.000Z,12.85
2022-10-17T18:02:25.000Z,12.87
2022-10-17T18:07:25.000Z,11.92
2022-10-17T18:12:25.000Z,12.3
2022-10-17T18:17:24.000Z,12.57
2022-10-17T18:22:24.000Z,12.72
2022-10-17T18:27:24.000Z,12.73
2022-10-17T18:32:24.000Z,12.49
2022-10-17T18:37:24.000Z,12.24
2022-10-17T18:42:25.000Z,12.04
2022-10-17T18:47:24.000Z,12.45
2022-10-17T18:52:24.000Z,12.45
2022-10-17T18:57:24.000Z,12.4
2022-10-17T19:02:25.000Z,11.92
2022-10-17T19:07:25.000Z,12.08
2022-10-17T19:12:25.000Z,11.78
2022-10-17T19:17:24.000Z,11.42
2022-10-17T19:22:24.000Z,10.84
2022-10-17T19:27:24.000Z,10.75
2022-10-17T19:32:24.000Z,10.95
2022-10-17T19:37:24.000Z,11.8
2022-10-17T19:42:24.000Z,10.92
2022-10-17T19:47:24.000Z,11.61
2022-10-17T19:52:24.000Z,13.06
2022-10-17T19:57:25.000Z,12.93
2022-10-17T20:02:24.000Z,12.18
2022-10-17T20:07:24.000Z,10.69
2022-10-17T20:12:24.000Z,10.43
2022-10-17T20:17:24.000Z,10.14
2022-10-17T20:22:25.000Z,10.13
2022-10-17T20:27:25.000Z,10.42
2022-10-17T20:32:24.000Z,9.91
2022-10-17T20:37:24.000Z,10
2022-10-17T20:42:25.000Z,10.18
2022-10-17T20:52:25.000Z,9.94
2022-10-17T20:57:24.000Z,9.71
2022-10-17T21:02:24.000Z,9.85
2022-10-17T21:07:25.000Z,9.33
2022-10-17T21:12:24.000Z,9.8
2022-10-17T21:22:24.000Z,9.96
2022-10-17T21:27:24.000Z,10.8
2022-10-17T21:37:24.000Z,11.16
2022-10-17T21:42:24.000Z,11.59
2022-10-17T21:47:25.000Z,11.24
2022-10-17T21:52:24.000Z,11.25
2022-10-17T21:57:24.000Z,10.71
2022-10-17T22:02:24.000Z,11.42
2022-10-17T22:07:24.000Z,12.03
2022-10-17T22:12:24.000Z,12.54
2022-10-17T22:17:25.000Z,13.29
2022-10-17T22:22:24.000Z,12.66
2022-10-17T22:27:24.000Z,12.36
2022-10-17T22:32:24.000Z,11.28
2022-10-17T22:37:25.000Z,10.42
2022-10-17T22:42:24.000Z,10.15
2022-10-17T22:47:24.000Z,9.73
2022-10-17T22:52:24.000Z,9.91
2022-10-17T22:57:25.000Z,9.76
2022-10-17T23:02:24.000Z,9.64
2022-10-17T23:07:24.000Z,9.7
2022-10-17T23:12:25.000Z,9.72
2022-10-17T23:17:25.000Z,9.67
2022-10-17T23:22:24.000Z,9.64
2022-10-17T23:27:24.000Z,10.5
2022-10-17T23:32:25.000Z,11.33
2022-10-17T23:37:25.000Z,10.91
2022-10-17T23:42:25.000Z,10.69
2022-10-17T23:47:24.000Z,10.58
2022-10-17T23:52:25.000Z,11.13
2022-10-17T23:57:24.000Z,10.92
